This is the latest recevied weather packets stored in our database for station/object WA9AFM-10. If no packets are shown the sender has not sent any weather packets the latest 10 day(s).
| Time | Temp. | Humidity | Pressure | Rain* | Wind** | Luminosity | Snow |
|---|---|---|---|---|---|---|---|
| 1777796473 | 13.89° C | 67% | 1014 hPa | 0 mm | - | - | - |
| 1777794674 | 13.89° C | 65% | 1014.3 hPa | 0 mm | - | - | - |
| 1777792873 | 14.44° C | 64% | 1014.5 hPa | 0 mm | - | - | - |
| 1777791074 | 14.44° C | 63% | 1014.7 hPa | 0 mm | - | - | - |
| 1777787472 | 15° C | 60% | 1015 hPa | 0 mm | - | - | - |
| 1777785673 | 15° C | 58% | 1015.1 hPa | 0 mm | - | - | - |
| 1777783873 | 15° C | 56% | 1014.8 hPa | 0 mm | - | - | - |
| 1777782077 | 15.56° C | 60% | 1014.7 hPa | 0 mm | - | - | - |
| 1777780272 | 15.56° C | 59% | 1014.8 hPa | 0 mm | - | - | - |
| 1777778473 | 16.11° C | 58% | 1014.7 hPa | 0 mm | - | - | - |
| 1777776673 | 17.22° C | 56% | 1014.4 hPa | 0 mm | - | - | - |
| 1777774876 | 17.78° C | 54% | 1014.2 hPa | 0 mm | - | - | - |
| 1777773072 | 18.89° C | 50% | 1013.9 hPa | 0 mm | - | - | - |
| 1777771273 | 20° C | 46% | 1013.7 hPa | 0 mm | - | - | - |
| 1777769473 | 21.11° C | 42% | 1013.5 hPa | 0 mm | - | - | - |
| 1777767674 | 22.22° C | 41% | 1013.4 hPa | 0 mm | - | - | - |
| 1777765875 | 22.78° C | 40% | 1013.4 hPa | 0 mm | - | - | - |
| 1777764073 | 23.33° C | 40% | 1013.5 hPa | 0 mm | - | - | - |
| 1777762273 | 23.89° C | 37% | 1013.6 hPa | 0 mm | - | - | - |
| 1777760474 | 24.44° C | 39% | 1013.8 hPa | 0 mm | - | - | - |
| 1777758672 | 24.44° C | 36% | 1014.1 hPa | 0 mm | - | - | - |
| 1777756873 | 24.44° C | 36% | 1014.5 hPa | 0 mm | - | - | - |
| 1777751474 | 23.33° C | 42% | 1015.3 hPa | 0 mm | - | - | - |
| 1777749673 | 22.78° C | 41% | 1015.5 hPa | 0 mm | - | - | - |
| 1777747873 | 23.33° C | 41% | 1015.8 hPa | 0 mm | - | - | - |
* Rain latest hour (hover to see other rain measurements)
** Current wind speed in m/s (hover to see current wind gust speed)